sensor_id;sensor_type;location;lat;lon;timestamp;temperature;humidity
14122;DHT22;7139;48.114;11.442;2023-04-01T00:00:47;7.80;99.90
14122;DHT22;7139;48.114;11.442;2023-04-01T00:03:14;7.80;99.90
14122;DHT22;7139;48.114;11.442;2023-04-01T00:05:41;7.80;99.90
14122;DHT22;7139;48.114;11.442;2023-04-01T00:08:09;7.90;99.90
14122;DHT22;7139;48.114;11.442;2023-04-01T00:10:36;7.90;99.90
14122;DHT22;7139;48.114;11.442;2023-04-01T00:13:03;7.90;99.90
14122;DHT22;7139;48.114;11.442;2023-04-01T00:15:31;7.90;99.90
14122;DHT22;7139;48.114;11.442;2023-04-01T00:17:59;7.80;99.90
14122;DHT22;7139;48.114;11.442;2023-04-01T00:20:26;7.80;99.90
14122;DHT22;7139;48.114;11.442;2023-04-01T00:22:53;7.80;99.90
14122;DHT22;7139;48.114;11.442;2023-04-01T00:25:20;7.80;99.90
14122;DHT22;7139;48.114;11.442;2023-04-01T00:27:47;7.80;99.90
14122;DHT22;7139;48.114;11.442;2023-04-01T00:30:14;7.80;99.90
14122;DHT22;7139;48.114;11.442;2023-04-01T00:32:41;7.80;99.90
14122;DHT22;7139;48.114;11.442;2023-04-01T00:35:10;7.80;99.90
14122;DHT22;7139;48.114;11.442;2023-04-01T00:37:38;7.80;99.90
14122;DHT22;7139;48.114;11.442;2023-04-01T00:40:07;7.80;99.90
14122;DHT22;7139;48.114;11.442;2023-04-01T00:42:34;7.80;99.90
14122;DHT22;7139;48.114;11.442;2023-04-01T00:45:27;7.80;99.90
14122;DHT22;7139;48.114;11.442;2023-04-01T00:47:55;7.70;99.90
14122;DHT22;7139;48.114;11.442;2023-04-01T00:50:25;7.70;99.90
14122;DHT22;7139;48.114;11.442;2023-04-01T00:52:53;7.70;99.90
14122;DHT22;7139;48.114;11.442;2023-04-01T00:55:21;7.80;99.90
14122;DHT22;7139;48.114;11.442;2023-04-01T00:57:50;7.80;99.90
14122;DHT22;7139;48.114;11.442;2023-04-01T01:00:18;7.80;99.90
14122;DHT22;7139;48.114;11.442;2023-04-01T01:02:47;7.80;99.90
14122;DHT22;7139;48.114;11.442;2023-04-01T01:05:17;7.80;99.90
14122;DHT22;7139;48.114;11.442;2023-04-01T01:07:51;7.80;99.90
14122;DHT22;7139;48.114;11.442;2023-04-01T01:10:24;7.80;99.90
14122;DHT22;7139;48.114;11.442;2023-04-01T01:12:57;7.80;99.90
14122;DHT22;7139;48.114;11.442;2023-04-01T01:15:26;7.90;99.90
14122;DHT22;7139;48.114;11.442;2023-04-01T01:18:00;7.90;99.90
14122;DHT22;7139;48.114;11.442;2023-04-01T01:21:04;7.90;99.90
14122;DHT22;7139;48.114;11.442;2023-04-01T01:23:50;8.00;99.90
14122;DHT22;7139;48.114;11.442;2023-04-01T01:26:52;7.90;99.90
14122;DHT22;7139;48.114;11.442;2023-04-01T01:29:45;7.90;99.90
14122;DHT22;7139;48.114;11.442;2023-04-01T01:32:22;8.00;99.90
14122;DHT22;7139;48.114;11.442;2023-04-01T01:34:55;7.90;99.90
14122;DHT22;7139;48.114;11.442;2023-04-01T01:37:27;8.00;99.90
14122;DHT22;7139;48.114;11.442;2023-04-01T01:39:59;8.00;99.90
14122;DHT22;7139;48.114;11.442;2023-04-01T01:42:28;8.00;99.90
14122;DHT22;7139;48.114;11.442;2023-04-01T01:44:57;7.90;99.90
14122;DHT22;7139;48.114;11.442;2023-04-01T01:47:25;8.00;99.90
14122;DHT22;7139;48.114;11.442;2023-04-01T01:49:53;8.00;99.90
14122;DHT22;7139;48.114;11.442;2023-04-01T01:52:21;8.00;99.90
14122;DHT22;7139;48.114;11.442;2023-04-01T01:54:52;8.00;99.90
14122;DHT22;7139;48.114;11.442;2023-04-01T01:57:23;8.00;99.90
14122;DHT22;7139;48.114;11.442;2023-04-01T01:59:52;8.00;99.90
14122;DHT22;7139;48.114;11.442;2023-04-01T02:02:21;8.00;99.90
14122;DHT22;7139;48.114;11.442;2023-04-01T02:04:49;8.00;99.90
14122;DHT22;7139;48.114;11.442;2023-04-01T02:07:20;8.00;99.90
14122;DHT22;7139;48.114;11.442;2023-04-01T02:09:49;8.00;99.90
14122;DHT22;7139;48.114;11.442;2023-04-01T02:12:17;8.00;99.90
14122;DHT22;7139;48.114;11.442;2023-04-01T02:14:49;8.00;99.90
14122;DHT22;7139;48.114;11.442;2023-04-01T02:17:19;8.00;99.90
14122;DHT22;7139;48.114;11.442;2023-04-01T02:19:50;8.00;99.90
14122;DHT22;7139;48.114;11.442;2023-04-01T02:22:21;8.00;99.90
14122;DHT22;7139;48.114;11.442;2023-04-01T02:24:54;8.00;99.90
14122;DHT22;7139;48.114;11.442;2023-04-01T02:27:24;7.90;99.90
14122;DHT22;7139;48.114;11.442;2023-04-01T02:29:51;8.00;99.90
14122;DHT22;7139;48.114;11.442;2023-04-01T02:32:18;8.00;99.90
14122;DHT22;7139;48.114;11.442;2023-04-01T02:34:46;8.00;99.90
14122;DHT22;7139;48.114;11.442;2023-04-01T02:37:14;8.00;99.90
14122;DHT22;7139;48.114;11.442;2023-04-01T02:39:41;7.90;99.90
14122;DHT22;7139;48.114;11.442;2023-04-01T02:42:10;7.90;99.90
14122;DHT22;7139;48.114;11.442;2023-04-01T02:44:37;7.90;99.90
14122;DHT22;7139;48.114;11.442;2023-04-01T02:47:03;7.90;99.90
14122;DHT22;7139;48.114;11.442;2023-04-01T02:49:30;7.90;99.90
14122;DHT22;7139;48.114;11.442;2023-04-01T02:51:57;7.90;99.90
14122;DHT22;7139;48.114;11.442;2023-04-01T02:54:24;7.90;99.90
14122;DHT22;7139;48.114;11.442;2023-04-01T02:56:51;7.90;99.90
14122;DHT22;7139;48.114;11.442;2023-04-01T02:59:19;7.90;99.90
14122;DHT22;7139;48.114;11.442;2023-04-01T03:01:45;7.90;99.90
14122;DHT22;7139;48.114;11.442;2023-04-01T03:04:12;7.90;99.90
14122;DHT22;7139;48.114;11.442;2023-04-01T03:06:39;7.90;99.90
14122;DHT22;7139;48.114;11.442;2023-04-01T03:09:05;7.80;99.90
14122;DHT22;7139;48.114;11.442;2023-04-01T03:11:32;7.90;99.90
14122;DHT22;7139;48.114;11.442;2023-04-01T03:13:59;7.90;99.90
14122;DHT22;7139;48.114;11.442;2023-04-01T03:16:27;7.90;99.90
14122;DHT22;7139;48.114;11.442;2023-04-01T03:18:54;7.80;99.90
14122;DHT22;7139;48.114;11.442;2023-04-01T03:21:24;7.80;99.90
14122;DHT22;7139;48.114;11.442;2023-04-01T03:23:51;7.80;99.90
14122;DHT22;7139;48.114;11.442;2023-04-01T03:26:18;7.70;99.90
14122;DHT22;7139;48.114;11.442;2023-04-01T03:28:45;7.70;99.90
14122;DHT22;7139;48.114;11.442;2023-04-01T03:31:12;7.70;99.90
14122;DHT22;7139;48.114;11.442;2023-04-01T03:33:40;7.60;99.90
14122;DHT22;7139;48.114;11.442;2023-04-01T03:36:07;7.60;99.90
14122;DHT22;7139;48.114;11.442;2023-04-01T03:38:34;7.60;99.90
14122;DHT22;7139;48.114;11.442;2023-04-01T03:41:01;7.60;99.90
14122;DHT22;7139;48.114;11.442;2023-04-01T03:43:28;7.50;99.90
14122;DHT22;7139;48.114;11.442;2023-04-01T03:45:55;7.50;99.90
14122;DHT22;7139;48.114;11.442;2023-04-01T03:48:23;7.50;99.90
14122;DHT22;7139;48.114;11.442;2023-04-01T03:50:52;7.50;99.90
14122;DHT22;7139;48.114;11.442;2023-04-01T03:53:18;7.50;99.90
14122;DHT22;7139;48.114;11.442;2023-04-01T03:55:45;7.50;99.90
14122;DHT22;7139;48.114;11.442;2023-04-01T03:58:12;7.50;99.90
14122;DHT22;7139;48.114;11.442;2023-04-01T04:00:39;7.40;99.90
14122;DHT22;7139;48.114;11.442;2023-04-01T04:03:06;7.50;99.90
14122;DHT22;7139;48.114;11.442;2023-04-01T04:05:33;7.50;99.90
14122;DHT22;7139;48.114;11.442;2023-04-01T04:08:01;7.50;99.90
14122;DHT22;7139;48.114;11.442;2023-04-01T04:10:27;7.50;99.90
14122;DHT22;7139;48.114;11.442;2023-04-01T04:12:54;7.50;99.90
14122;DHT22;7139;48.114;11.442;2023-04-01T04:15:21;7.50;99.90
14122;DHT22;7139;48.114;11.442;2023-04-01T04:17:48;7.50;99.90
14122;DHT22;7139;48.114;11.442;2023-04-01T04:20:15;7.50;99.90
14122;DHT22;7139;48.114;11.442;2023-04-01T04:22:42;7.60;99.90
14122;DHT22;7139;48.114;11.442;2023-04-01T04:25:10;7.60;99.90
14122;DHT22;7139;48.114;11.442;2023-04-01T04:27:37;7.60;99.90
14122;DHT22;7139;48.114;11.442;2023-04-01T04:30:06;7.60;99.90
14122;DHT22;7139;48.114;11.442;2023-04-01T04:32:33;7.60;99.90
14122;DHT22;7139;48.114;11.442;2023-04-01T04:35:00;7.50;99.90
14122;DHT22;7139;48.114;11.442;2023-04-01T04:37:27;7.50;99.90
14122;DHT22;7139;48.114;11.442;2023-04-01T04:39:54;7.50;99.90
14122;DHT22;7139;48.114;11.442;2023-04-01T04:42:22;7.60;99.90
14122;DHT22;7139;48.114;11.442;2023-04-01T04:44:49;7.60;99.90
14122;DHT22;7139;48.114;11.442;2023-04-01T04:47:15;7.60;99.90
14122;DHT22;7139;48.114;11.442;2023-04-01T04:49:42;7.60;99.90
14122;DHT22;7139;48.114;11.442;2023-04-01T04:52:09;7.60;99.90
14122;DHT22;7139;48.114;11.442;2023-04-01T04:54:36;7.70;99.90
14122;DHT22;7139;48.114;11.442;2023-04-01T04:57:03;7.70;99.90
14122;DHT22;7139;48.114;11.442;2023-04-01T04:59:31;7.70;99.90
14122;DHT22;7139;48.114;11.442;2023-04-01T05:01:58;7.80;99.90
14122;DHT22;7139;48.114;11.442;2023-04-01T05:04:25;7.80;99.90
14122;DHT22;7139;48.114;11.442;2023-04-01T05:06:52;7.80;99.90
14122;DHT22;7139;48.114;11.442;2023-04-01T05:09:18;7.80;99.90
14122;DHT22;7139;48.114;11.442;2023-04-01T05:11:45;7.80;99.90
14122;DHT22;7139;48.114;11.442;2023-04-01T05:14:13;7.80;99.90
14122;DHT22;7139;48.114;11.442;2023-04-01T05:16:41;7.80;99.90
14122;DHT22;7139;48.114;11.442;2023-04-01T05:19:08;7.90;99.90
14122;DHT22;7139;48.114;11.442;2023-04-01T05:21:35;7.90;99.90
14122;DHT22;7139;48.114;11.442;2023-04-01T05:24:02;7.90;99.90
14122;DHT22;7139;48.114;11.442;2023-04-01T05:26:29;7.90;99.90
14122;DHT22;7139;48.114;11.442;2023-04-01T05:28:56;7.90;99.90
14122;DHT22;7139;48.114;11.442;2023-04-01T05:31:22;8.00;99.90
14122;DHT22;7139;48.114;11.442;2023-04-01T05:33:52;7.90;99.90
14122;DHT22;7139;48.114;11.442;2023-04-01T05:36:19;8.00;99.90
14122;DHT22;7139;48.114;11.442;2023-04-01T05:38:46;8.00;99.90
14122;DHT22;7139;48.114;11.442;2023-04-01T05:41:13;8.00;99.90
14122;DHT22;7139;48.114;11.442;2023-04-01T05:43:41;7.90;99.90
14122;DHT22;7139;48.114;11.442;2023-04-01T05:46:08;8.00;99.90
14122;DHT22;7139;48.114;11.442;2023-04-01T05:48:35;8.10;99.90
14122;DHT22;7139;48.114;11.442;2023-04-01T05:51:04;8.00;99.90
14122;DHT22;7139;48.114;11.442;2023-04-01T05:53:31;8.00;99.90
14122;DHT22;7139;48.114;11.442;2023-04-01T05:56:02;8.00;99.90
14122;DHT22;7139;48.114;11.442;2023-04-01T05:58:29;8.00;99.90
14122;DHT22;7139;48.114;11.442;2023-04-01T06:01:00;8.10;99.90
14122;DHT22;7139;48.114;11.442;2023-04-01T06:03:28;8.00;99.90
14122;DHT22;7139;48.114;11.442;2023-04-01T06:05:54;8.00;99.90
14122;DHT22;7139;48.114;11.442;2023-04-01T06:08:24;8.10;99.90
14122;DHT22;7139;48.114;11.442;2023-04-01T06:11:13;8.10;99.90
14122;DHT22;7139;48.114;11.442;2023-04-01T06:13:56;8.10;99.90
14122;DHT22;7139;48.114;11.442;2023-04-01T06:16:38;8.10;99.90
14122;DHT22;7139;48.114;11.442;2023-04-01T06:19:16;8.10;99.90
14122;DHT22;7139;48.114;11.442;2023-04-01T06:22:03;8.10;99.90
14122;DHT22;7139;48.114;11.442;2023-04-01T06:27:43;8.20;99.90
14122;DHT22;7139;48.114;11.442;2023-04-01T06:30:29;8.20;99.90
14122;DHT22;7139;48.114;11.442;2023-04-01T06:33:13;8.20;99.90
14122;DHT22;7139;48.114;11.442;2023-04-01T06:36:04;8.30;99.90
14122;DHT22;7139;48.114;11.442;2023-04-01T06:39:00;8.30;99.90
14122;DHT22;7139;48.114;11.442;2023-04-01T06:44:25;8.30;99.90
14122;DHT22;7139;48.114;11.442;2023-04-01T06:47:01;8.40;99.90
14122;DHT22;7139;48.114;11.442;2023-04-01T06:49:44;8.40;99.90
14122;DHT22;7139;48.114;11.442;2023-04-01T06:52:19;8.50;99.90
14122;DHT22;7139;48.114;11.442;2023-04-01T06:54:52;8.60;99.90
14122;DHT22;7139;48.114;11.442;2023-04-01T06:57:28;8.70;99.90
14122;DHT22;7139;48.114;11.442;2023-04-01T06:59:57;8.80;99.90
14122;DHT22;7139;48.114;11.442;2023-04-01T07:02:30;8.80;99.70
14122;DHT22;7139;48.114;11.442;2023-04-01T07:04:59;8.90;99.90
14122;DHT22;7139;48.114;11.442;2023-04-01T07:07:33;8.90;99.80
14122;DHT22;7139;48.114;11.442;2023-04-01T07:10:05;8.90;99.90
14122;DHT22;7139;48.114;11.442;2023-04-01T07:12:40;9.00;99.80
14122;DHT22;7139;48.114;11.442;2023-04-01T07:15:16;9.00;99.40
14122;DHT22;7139;48.114;11.442;2023-04-01T07:17:45;9.00;99.60
14122;DHT22;7139;48.114;11.442;2023-04-01T07:20:17;9.00;99.30
14122;DHT22;7139;48.114;11.442;2023-04-01T07:22:47;9.00;99.40
14122;DHT22;7139;48.114;11.442;2023-04-01T07:25:17;9.00;99.20
14122;DHT22;7139;48.114;11.442;2023-04-01T07:27:46;9.20;99.40
14122;DHT22;7139;48.114;11.442;2023-04-01T07:30:15;9.20;99.10
14122;DHT22;7139;48.114;11.442;2023-04-01T07:32:45;9.30;99.10
14122;DHT22;7139;48.114;11.442;2023-04-01T07:35:22;9.40;99.30
14122;DHT22;7139;48.114;11.442;2023-04-01T07:38:03;9.40;98.90
14122;DHT22;7139;48.114;11.442;2023-04-01T07:40:40;9.40;99.00
14122;DHT22;7139;48.114;11.442;2023-04-01T07:43:41;9.40;99.00
14122;DHT22;7139;48.114;11.442;2023-04-01T07:46:19;9.60;99.10
14122;DHT22;7139;48.114;11.442;2023-04-01T07:48:54;9.70;98.90
14122;DHT22;7139;48.114;11.442;2023-04-01T07:51:28;9.80;98.60
14122;DHT22;7139;48.114;11.442;2023-04-01T07:54:02;9.80;98.40
14122;DHT22;7139;48.114;11.442;2023-04-01T07:56:36;9.80;98.50
14122;DHT22;7139;48.114;11.442;2023-04-01T07:59:11;9.80;97.90
14122;DHT22;7139;48.114;11.442;2023-04-01T08:01:46;9.70;97.90
14122;DHT22;7139;48.114;11.442;2023-04-01T08:04:23;9.70;98.40
14122;DHT22;7139;48.114;11.442;2023-04-01T08:06:56;9.90;98.00
14122;DHT22;7139;48.114;11.442;2023-04-01T08:09:28;9.90;97.40
14122;DHT22;7139;48.114;11.442;2023-04-01T08:12:04;9.90;97.50
14122;DHT22;7139;48.114;11.442;2023-04-01T08:14:41;9.80;97.60
14122;DHT22;7139;48.114;11.442;2023-04-01T08:17:15;9.90;97.50
14122;DHT22;7139;48.114;11.442;2023-04-01T08:19:55;10.00;96.90
14122;DHT22;7139;48.114;11.442;2023-04-01T08:22:26;10.00;96.90
14122;DHT22;7139;48.114;11.442;2023-04-01T08:24:56;9.90;97.00
14122;DHT22;7139;48.114;11.442;2023-04-01T08:27:31;10.00;97.40
14122;DHT22;7139;48.114;11.442;2023-04-01T08:30:09;10.20;96.90
14122;DHT22;7139;48.114;11.442;2023-04-01T08:32:44;10.50;96.60
14122;DHT22;7139;48.114;11.442;2023-04-01T08:35:20;10.50;96.20
14122;DHT22;7139;48.114;11.442;2023-04-01T08:37:51;10.50;96.30
14122;DHT22;7139;48.114;11.442;2023-04-01T08:40:37;10.50;95.90
14122;DHT22;7139;48.114;11.442;2023-04-01T08:43:09;10.50;96.00
14122;DHT22;7139;48.114;11.442;2023-04-01T08:45:48;10.40;95.80
14122;DHT22;7139;48.114;11.442;2023-04-01T08:48:50;10.50;95.90
14122;DHT22;7139;48.114;11.442;2023-04-01T08:51:47;10.50;95.60
14122;DHT22;7139;48.114;11.442;2023-04-01T08:54:39;10.60;95.50
14122;DHT22;7139;48.114;11.442;2023-04-01T08:57:15;10.70;95.70
14122;DHT22;7139;48.114;11.442;2023-04-01T08:59:57;10.80;95.70
14122;DHT22;7139;48.114;11.442;2023-04-01T09:05:48;11.00;95.30
14122;DHT22;7139;48.114;11.442;2023-04-01T09:08:34;11.10;95.60
14122;DHT22;7139;48.114;11.442;2023-04-01T09:11:26;11.40;94.90
14122;DHT22;7139;48.114;11.442;2023-04-01T09:17:15;11.80;94.40
14122;DHT22;7139;48.114;11.442;2023-04-01T09:20:01;11.80;93.80
14122;DHT22;7139;48.114;11.442;2023-04-01T09:22:50;11.70;93.70
14122;DHT22;7139;48.114;11.442;2023-04-01T09:25:31;11.50;93.60
14122;DHT22;7139;48.114;11.442;2023-04-01T09:28:10;11.40;93.60
14122;DHT22;7139;48.114;11.442;2023-04-01T09:34:13;11.30;94.00
14122;DHT22;7139;48.114;11.442;2023-04-01T09:36:45;11.40;94.00
14122;DHT22;7139;48.114;11.442;2023-04-01T09:39:33;11.40;93.70
14122;DHT22;7139;48.114;11.442;2023-04-01T09:42:23;11.60;93.50
14122;DHT22;7139;48.114;11.442;2023-04-01T09:44:59;11.70;94.20
14122;DHT22;7139;48.114;11.442;2023-04-01T09:47:42;11.90;93.20
14122;DHT22;7139;48.114;11.442;2023-04-01T09:50:36;12.00;92.90
14122;DHT22;7139;48.114;11.442;2023-04-01T09:53:18;12.00;93.10
14122;DHT22;7139;48.114;11.442;2023-04-01T09:56:08;12.00;92.80
14122;DHT22;7139;48.114;11.442;2023-04-01T09:58:58;12.00;92.70
14122;DHT22;7139;48.114;11.442;2023-04-01T10:01:42;11.90;92.30
14122;DHT22;7139;48.114;11.442;2023-04-01T10:04:48;11.80;92.70
14122;DHT22;7139;48.114;11.442;2023-04-01T10:10:50;11.60;93.00
14122;DHT22;7139;48.114;11.442;2023-04-01T10:16:57;11.80;92.80
14122;DHT22;7139;48.114;11.442;2023-04-01T10:22:48;11.80;92.90
14122;DHT22;7139;48.114;11.442;2023-04-01T10:29:02;11.90;93.00
14122;DHT22;7139;48.114;11.442;2023-04-01T10:32:10;11.90;92.70
14122;DHT22;7139;48.114;11.442;2023-04-01T10:35:02;11.80;92.40
14122;DHT22;7139;48.114;11.442;2023-04-01T10:37:45;11.70;93.10
14122;DHT22;7139;48.114;11.442;2023-04-01T10:40:48;11.60;93.20
14122;DHT22;7139;48.114;11.442;2023-04-01T10:43:42;11.60;93.50
14122;DHT22;7139;48.114;11.442;2023-04-01T10:46:37;11.50;93.60
14122;DHT22;7139;48.114;11.442;2023-04-01T10:49:47;11.40;94.10
14122;DHT22;7139;48.114;11.442;2023-04-01T10:52:49;11.30;94.70
14122;DHT22;7139;48.114;11.442;2023-04-01T11:04:53;10.80;96.30
14122;DHT22;7139;48.114;11.442;2023-04-01T11:13:54;10.60;98.60
14122;DHT22;7139;48.114;11.442;2023-04-01T11:16:52;10.70;98.70
14122;DHT22;7139;48.114;11.442;2023-04-01T11:22:46;10.70;99.20
14122;DHT22;7139;48.114;11.442;2023-04-01T11:25:46;10.70;98.90
14122;DHT22;7139;48.114;11.442;2023-04-01T11:28:51;10.70;99.20
14122;DHT22;7139;48.114;11.442;2023-04-01T11:31:31;10.60;99.10
14122;DHT22;7139;48.114;11.442;2023-04-01T11:34:13;10.50;98.20
14122;DHT22;7139;48.114;11.442;2023-04-01T11:36:48;10.50;98.80
14122;DHT22;7139;48.114;11.442;2023-04-01T11:39:24;10.40;98.50
14122;DHT22;7139;48.114;11.442;2023-04-01T11:42:00;10.30;99.00
14122;DHT22;7139;48.114;11.442;2023-04-01T11:44:32;10.20;99.90
14122;DHT22;7139;48.114;11.442;2023-04-01T11:47:15;10.10;99.90
14122;DHT22;7139;48.114;11.442;2023-04-01T11:49:53;10.00;99.90
14122;DHT22;7139;48.114;11.442;2023-04-01T11:52:45;9.90;99.90
14122;DHT22;7139;48.114;11.442;2023-04-01T11:55:31;9.80;99.90
14122;DHT22;7139;48.114;11.442;2023-04-01T12:01:27;9.70;99.90
14122;DHT22;7139;48.114;11.442;2023-04-01T12:04:12;9.40;99.90
14122;DHT22;7139;48.114;11.442;2023-04-01T12:06:50;9.30;99.90
14122;DHT22;7139;48.114;11.442;2023-04-01T12:09:23;9.30;99.90
14122;DHT22;7139;48.114;11.442;2023-04-01T12:12:03;9.20;99.90
14122;DHT22;7139;48.114;11.442;2023-04-01T12:14:42;9.20;99.90
14122;DHT22;7139;48.114;11.442;2023-04-01T12:17:20;9.20;99.90
14122;DHT22;7139;48.114;11.442;2023-04-01T12:19:53;9.10;99.90
14122;DHT22;7139;48.114;11.442;2023-04-01T12:22:36;9.10;99.90
14122;DHT22;7139;48.114;11.442;2023-04-01T12:25:21;9.00;99.90
14122;DHT22;7139;48.114;11.442;2023-04-01T12:28:06;9.00;99.90
14122;DHT22;7139;48.114;11.442;2023-04-01T12:30:51;9.00;99.90
14122;DHT22;7139;48.114;11.442;2023-04-01T12:33:42;8.90;99.90
14122;DHT22;7139;48.114;11.442;2023-04-01T12:36:23;8.80;99.90
14122;DHT22;7139;48.114;11.442;2023-04-01T12:39:08;8.90;99.90
14122;DHT22;7139;48.114;11.442;2023-04-01T12:41:49;8.90;99.90
14122;DHT22;7139;48.114;11.442;2023-04-01T12:44:33;8.80;99.90
14122;DHT22;7139;48.114;11.442;2023-04-01T12:47:27;8.90;99.90
14122;DHT22;7139;48.114;11.442;2023-04-01T12:50:10;8.90;99.90
14122;DHT22;7139;48.114;11.442;2023-04-01T12:52:52;8.80;99.90
14122;DHT22;7139;48.114;11.442;2023-04-01T12:55:36;8.90;99.90
14122;DHT22;7139;48.114;11.442;2023-04-01T12:58:26;8.90;99.90
14122;DHT22;7139;48.114;11.442;2023-04-01T13:01:28;8.90;99.90
14122;DHT22;7139;48.114;11.442;2023-04-01T13:04:31;8.90;99.90
14122;DHT22;7139;48.114;11.442;2023-04-01T13:07:16;8.90;99.90
14122;DHT22;7139;48.114;11.442;2023-04-01T13:09:52;8.90;99.90
14122;DHT22;7139;48.114;11.442;2023-04-01T13:12:36;8.90;99.90
14122;DHT22;7139;48.114;11.442;2023-04-01T13:15:20;8.80;99.90
14122;DHT22;7139;48.114;11.442;2023-04-01T13:17:53;8.90;99.90
14122;DHT22;7139;48.114;11.442;2023-04-01T13:20:33;8.90;99.90
14122;DHT22;7139;48.114;11.442;2023-04-01T13:23:11;8.90;99.90
14122;DHT22;7139;48.114;11.442;2023-04-01T13:25:47;8.90;99.90
14122;DHT22;7139;48.114;11.442;2023-04-01T13:28:24;8.90;99.90
14122;DHT22;7139;48.114;11.442;2023-04-01T13:30:59;8.90;99.90
14122;DHT22;7139;48.114;11.442;2023-04-01T13:33:33;8.80;99.90
14122;DHT22;7139;48.114;11.442;2023-04-01T13:36:11;8.80;99.90
14122;DHT22;7139;48.114;11.442;2023-04-01T13:39:19;8.80;99.90
14122;DHT22;7139;48.114;11.442;2023-04-01T13:42:06;8.70;99.90
14122;DHT22;7139;48.114;11.442;2023-04-01T13:44:41;8.70;99.90
14122;DHT22;7139;48.114;11.442;2023-04-01T13:47:22;8.70;99.90
14122;DHT22;7139;48.114;11.442;2023-04-01T13:50:23;8.70;99.90
14122;DHT22;7139;48.114;11.442;2023-04-01T13:53:07;8.70;99.90
14122;DHT22;7139;48.114;11.442;2023-04-01T13:55:59;8.80;99.90
14122;DHT22;7139;48.114;11.442;2023-04-01T13:58:41;8.90;99.90
14122;DHT22;7139;48.114;11.442;2023-04-01T14:01:13;9.00;99.90
14122;DHT22;7139;48.114;11.442;2023-04-01T14:04:02;9.00;99.90
14122;DHT22;7139;48.114;11.442;2023-04-01T14:06:40;9.00;99.90
14122;DHT22;7139;48.114;11.442;2023-04-01T14:09:42;9.00;99.90
14122;DHT22;7139;48.114;11.442;2023-04-01T14:12:18;9.00;99.90
14122;DHT22;7139;48.114;11.442;2023-04-01T14:15:07;9.00;99.90
14122;DHT22;7139;48.114;11.442;2023-04-01T14:17:53;9.00;99.90
14122;DHT22;7139;48.114;11.442;2023-04-01T14:20:34;9.00;99.90
14122;DHT22;7139;48.114;11.442;2023-04-01T14:23:33;9.00;99.90
14122;DHT22;7139;48.114;11.442;2023-04-01T14:26:12;9.10;99.90
14122;DHT22;7139;48.114;11.442;2023-04-01T14:28:48;9.10;99.90
14122;DHT22;7139;48.114;11.442;2023-04-01T14:31:27;9.10;99.90
14122;DHT22;7139;48.114;11.442;2023-04-01T14:34:05;9.10;99.90
14122;DHT22;7139;48.114;11.442;2023-04-01T14:36:47;9.10;99.90
14122;DHT22;7139;48.114;11.442;2023-04-01T14:39:27;9.20;99.90
14122;DHT22;7139;48.114;11.442;2023-04-01T14:42:06;9.10;99.90
14122;DHT22;7139;48.114;11.442;2023-04-01T14:44:52;9.00;99.90
14122;DHT22;7139;48.114;11.442;2023-04-01T14:47:43;9.00;99.90
14122;DHT22;7139;48.114;11.442;2023-04-01T14:50:15;9.10;99.90
14122;DHT22;7139;48.114;11.442;2023-04-01T14:52:47;9.10;99.90
14122;DHT22;7139;48.114;11.442;2023-04-01T14:55:24;9.00;99.90
14122;DHT22;7139;48.114;11.442;2023-04-01T14:58:07;9.00;99.90
14122;DHT22;7139;48.114;11.442;2023-04-01T15:00:47;9.00;99.90
14122;DHT22;7139;48.114;11.442;2023-04-01T15:03:20;9.00;99.90
14122;DHT22;7139;48.114;11.442;2023-04-01T15:05:55;9.00;99.90
14122;DHT22;7139;48.114;11.442;2023-04-01T15:08:25;9.00;99.90
14122;DHT22;7139;48.114;11.442;2023-04-01T15:11:11;9.00;99.90
14122;DHT22;7139;48.114;11.442;2023-04-01T15:16:58;9.10;99.90
14122;DHT22;7139;48.114;11.442;2023-04-01T15:19:36;9.20;99.90
14122;DHT22;7139;48.114;11.442;2023-04-01T15:22:23;9.30;99.90
14122;DHT22;7139;48.114;11.442;2023-04-01T15:25:06;9.30;99.90
14122;DHT22;7139;48.114;11.442;2023-04-01T15:27:41;9.30;99.90
14122;DHT22;7139;48.114;11.442;2023-04-01T15:30:33;9.40;99.90
14122;DHT22;7139;48.114;11.442;2023-04-01T15:33:17;9.40;99.90
14122;DHT22;7139;48.114;11.442;2023-04-01T15:35:51;9.40;99.90
14122;DHT22;7139;48.114;11.442;2023-04-01T15:38:30;9.40;99.90
14122;DHT22;7139;48.114;11.442;2023-04-01T15:41:07;9.50;99.90
14122;DHT22;7139;48.114;11.442;2023-04-01T15:43:41;9.50;99.90
14122;DHT22;7139;48.114;11.442;2023-04-01T15:46:19;9.50;99.90
14122;DHT22;7139;48.114;11.442;2023-04-01T15:49:02;9.50;99.90
14122;DHT22;7139;48.114;11.442;2023-04-01T15:51:45;9.50;99.90
14122;DHT22;7139;48.114;11.442;2023-04-01T15:54:32;9.70;99.90
14122;DHT22;7139;48.114;11.442;2023-04-01T15:57:20;9.80;99.90
14122;DHT22;7139;48.114;11.442;2023-04-01T16:00:12;10.00;99.90
14122;DHT22;7139;48.114;11.442;2023-04-01T16:02:46;10.00;99.90
14122;DHT22;7139;48.114;11.442;2023-04-01T16:05:26;10.10;99.90
14122;DHT22;7139;48.114;11.442;2023-04-01T16:08:17;10.10;99.90
14122;DHT22;7139;48.114;11.442;2023-04-01T16:10:56;10.10;99.90
14122;DHT22;7139;48.114;11.442;2023-04-01T16:13:34;10.20;99.90
14122;DHT22;7139;48.114;11.442;2023-04-01T16:16:14;10.10;99.90
14122;DHT22;7139;48.114;11.442;2023-04-01T16:19:06;10.00;99.90
14122;DHT22;7139;48.114;11.442;2023-04-01T16:21:38;10.10;99.90
14122;DHT22;7139;48.114;11.442;2023-04-01T16:24:17;10.20;99.90
14122;DHT22;7139;48.114;11.442;2023-04-01T16:26:52;10.20;99.90
14122;DHT22;7139;48.114;11.442;2023-04-01T16:29:26;10.20;99.90
14122;DHT22;7139;48.114;11.442;2023-04-01T16:31:58;10.10;99.80
14122;DHT22;7139;48.114;11.442;2023-04-01T16:34:31;9.90;99.70
14122;DHT22;7139;48.114;11.442;2023-04-01T16:37:05;9.80;99.80
14122;DHT22;7139;48.114;11.442;2023-04-01T16:39:44;9.70;99.90
14122;DHT22;7139;48.114;11.442;2023-04-01T16:42:24;9.70;99.90
14122;DHT22;7139;48.114;11.442;2023-04-01T16:44:55;9.60;99.90
14122;DHT22;7139;48.114;11.442;2023-04-01T16:47:29;9.60;99.70
14122;DHT22;7139;48.114;11.442;2023-04-01T16:49:59;9.60;99.90
14122;DHT22;7139;48.114;11.442;2023-04-01T16:52:35;9.50;99.40
14122;DHT22;7139;48.114;11.442;2023-04-01T16:55:15;9.50;99.30
14122;DHT22;7139;48.114;11.442;2023-04-01T16:57:47;9.50;98.90
14122;DHT22;7139;48.114;11.442;2023-04-01T17:00:22;9.50;99.20
14122;DHT22;7139;48.114;11.442;2023-04-01T17:02:58;9.50;99.10
14122;DHT22;7139;48.114;11.442;2023-04-01T17:05:39;9.50;99.10
14122;DHT22;7139;48.114;11.442;2023-04-01T17:08:10;9.40;99.10
14122;DHT22;7139;48.114;11.442;2023-04-01T17:10:50;9.40;99.60
14122;DHT22;7139;48.114;11.442;2023-04-01T17:13:34;9.40;99.20
14122;DHT22;7139;48.114;11.442;2023-04-01T17:16:14;9.50;99.40
14122;DHT22;7139;48.114;11.442;2023-04-01T17:18:49;9.40;99.50
14122;DHT22;7139;48.114;11.442;2023-04-01T17:21:20;9.50;99.50
14122;DHT22;7139;48.114;11.442;2023-04-01T17:23:52;9.50;99.50
14122;DHT22;7139;48.114;11.442;2023-04-01T17:26:26;9.50;99.40
14122;DHT22;7139;48.114;11.442;2023-04-01T17:29:02;9.40;99.30
14122;DHT22;7139;48.114;11.442;2023-04-01T17:31:42;9.40;99.40
14122;DHT22;7139;48.114;11.442;2023-04-01T17:34:31;9.40;99.20